sensor_id;sensor_type;location;lat;lon;timestamp;temperature;humidity
45383;DHT22;42455;51.660;5.824;2022-11-04T00:04:19;13.1;97.0
45383;DHT22;42455;51.660;5.824;2022-11-04T00:09:25;13.1;97.0
45383;DHT22;42455;51.660;5.824;2022-11-04T00:14:30;13.0;97.0
45383;DHT22;42455;51.660;5.824;2022-11-04T00:19:36;13.0;97.0
45383;DHT22;42455;51.660;5.824;2022-11-04T00:24:42;12.9;97.0
45383;DHT22;42455;51.660;5.824;2022-11-04T00:29:48;12.8;97.0
45383;DHT22;42455;51.660;5.824;2022-11-04T00:34:55;12.8;97.0
45383;DHT22;42455;51.660;5.824;2022-11-04T00:40:01;12.7;96.5
45383;DHT22;42455;51.660;5.824;2022-11-04T00:45:09;12.6;96.5
45383;DHT22;42455;51.660;5.824;2022-11-04T00:50:13;12.5;96.5
45383;DHT22;42455;51.660;5.824;2022-11-04T00:55:20;12.4;96.5
45383;DHT22;42455;51.660;5.824;2022-11-04T01:00:26;12.4;96.5
45383;DHT22;42455;51.660;5.824;2022-11-04T01:05:32;12.3;96.5
45383;DHT22;42455;51.660;5.824;2022-11-04T01:10:38;12.3;96.0
45383;DHT22;42455;51.660;5.824;2022-11-04T01:15:44;12.2;96.0
45383;DHT22;42455;51.660;5.824;2022-11-04T01:20:51;12.1;96.0
45383;DHT22;42455;51.660;5.824;2022-11-04T01:25:57;12.0;96.0
45383;DHT22;42455;51.660;5.824;2022-11-04T01:31:04;12.0;96.5
45383;DHT22;42455;51.660;5.824;2022-11-04T01:36:10;12.0;97.0
45383;DHT22;42455;51.660;5.824;2022-11-04T01:41:18;12.0;97.0
45383;DHT22;42455;51.660;5.824;2022-11-04T01:46:27;12.0;97.5
45383;DHT22;42455;51.660;5.824;2022-11-04T01:51:28;12.0;97.5
45383;DHT22;42455;51.660;5.824;2022-11-04T01:56:32;12.1;98.0
45383;DHT22;42455;51.660;5.824;2022-11-04T02:01:38;12.1;98.0
45383;DHT22;42455;51.660;5.824;2022-11-04T02:06:45;12.2;98.0
45383;DHT22;42455;51.660;5.824;2022-11-04T02:11:51;12.2;98.0
45383;DHT22;42455;51.660;5.824;2022-11-04T02:17:00;12.3;98.0
45383;DHT22;42455;51.660;5.824;2022-11-04T02:23:18;12.3;98.0
45383;DHT22;42455;51.660;5.824;2022-11-04T02:30:04;12.2;97.5
45383;DHT22;42455;51.660;5.824;2022-11-04T02:32:19;12.2;97.5
45383;DHT22;42455;51.660;5.824;2022-11-04T02:37:53;12.2;97.5
45383;DHT22;42455;51.660;5.824;2022-11-04T02:42:36;12.1;97.5
45383;DHT22;42455;51.660;5.824;2022-11-04T02:47:42;12.1;97.5
45383;DHT22;42455;51.660;5.824;2022-11-04T02:52:43;12.0;97.5
45383;DHT22;42455;51.660;5.824;2022-11-04T02:57:47;12.0;97.5
45383;DHT22;42455;51.660;5.824;2022-11-04T03:02:56;11.9;97.5
45383;DHT22;42455;51.660;5.824;2022-11-04T03:08:01;11.9;97.5
45383;DHT22;42455;51.660;5.824;2022-11-04T03:13:09;11.8;97.0
45383;DHT22;42455;51.660;5.824;2022-11-04T03:18:17;11.8;97.0
45383;DHT22;42455;51.660;5.824;2022-11-04T03:23:18;11.7;97.0
45383;DHT22;42455;51.660;5.824;2022-11-04T03:28:34;11.6;97.0
45383;DHT22;42455;51.660;5.824;2022-11-04T03:33:33;11.6;97.0
45383;DHT22;42455;51.660;5.824;2022-11-04T03:38:37;11.5;97.0
45383;DHT22;42455;51.660;5.824;2022-11-04T03:43:42;11.4;97.0
45383;DHT22;42455;51.660;5.824;2022-11-04T03:48:50;11.4;97.0
45383;DHT22;42455;51.660;5.824;2022-11-04T03:53:53;11.4;97.0
45383;DHT22;42455;51.660;5.824;2022-11-04T03:59:32;11.3;97.0
45383;DHT22;42455;51.660;5.824;2022-11-04T04:04:25;11.3;97.0
45383;DHT22;42455;51.660;5.824;2022-11-04T04:09:21;11.2;97.0
45383;DHT22;42455;51.660;5.824;2022-11-04T04:14:21;11.1;97.0
45383;DHT22;42455;51.660;5.824;2022-11-04T04:19:24;11.1;97.0
45383;DHT22;42455;51.660;5.824;2022-11-04T04:24:36;11.1;97.5
45383;DHT22;42455;51.660;5.824;2022-11-04T04:29:37;11.1;97.0
45383;DHT22;42455;51.660;5.824;2022-11-04T04:34:43;11.1;97.0
45383;DHT22;42455;51.660;5.824;2022-11-04T04:39:51;11.0;97.0
45383;DHT22;42455;51.660;5.824;2022-11-04T04:44:55;11.0;97.0
45383;DHT22;42455;51.660;5.824;2022-11-04T04:50:01;10.9;97.0
45383;DHT22;42455;51.660;5.824;2022-11-04T04:55:08;10.9;97.0
45383;DHT22;42455;51.660;5.824;2022-11-04T05:00:16;10.9;97.0
45383;DHT22;42455;51.660;5.824;2022-11-04T05:05:20;10.8;97.0
45383;DHT22;42455;51.660;5.824;2022-11-04T05:10:26;10.8;97.0
45383;DHT22;42455;51.660;5.824;2022-11-04T05:15:33;10.7;97.0
45383;DHT22;42455;51.660;5.824;2022-11-04T05:20:38;10.6;96.5
45383;DHT22;42455;51.660;5.824;2022-11-04T05:25:45;10.6;96.5
45383;DHT22;42455;51.660;5.824;2022-11-04T05:30:51;10.5;97.0
45383;DHT22;42455;51.660;5.824;2022-11-04T05:36:04;10.4;97.0
45383;DHT22;42455;51.660;5.824;2022-11-04T05:41:02;10.4;97.0
45383;DHT22;42455;51.660;5.824;2022-11-04T05:46:09;10.3;97.0
45383;DHT22;42455;51.660;5.824;2022-11-04T05:51:15;10.3;96.5
45383;DHT22;42455;51.660;5.824;2022-11-04T05:56:20;10.2;96.5
45383;DHT22;42455;51.660;5.824;2022-11-04T06:01:29;10.2;96.5
45383;DHT22;42455;51.660;5.824;2022-11-04T06:06:35;10.1;96.5
45383;DHT22;42455;51.660;5.824;2022-11-04T06:11:39;10.1;97.0
45383;DHT22;42455;51.660;5.824;2022-11-04T06:16:45;10.0;96.5
45383;DHT22;42455;51.660;5.824;2022-11-04T06:21:51;9.9;96.5
45383;DHT22;42455;51.660;5.824;2022-11-04T06:26:57;9.9;96.5
45383;DHT22;42455;51.660;5.824;2022-11-04T06:32:04;9.8;96.5
45383;DHT22;42455;51.660;5.824;2022-11-04T06:37:10;9.8;96.5
45383;DHT22;42455;51.660;5.824;2022-11-04T06:42:16;9.7;97.0
45383;DHT22;42455;51.660;5.824;2022-11-04T06:47:22;9.7;97.0
45383;DHT22;42455;51.660;5.824;2022-11-04T06:52:28;9.7;97.0
45383;DHT22;42455;51.660;5.824;2022-11-04T06:57:34;9.7;97.0
45383;DHT22;42455;51.660;5.824;2022-11-04T07:02:41;9.6;97.0
45383;DHT22;42455;51.660;5.824;2022-11-04T07:07:47;9.6;97.0
45383;DHT22;42455;51.660;5.824;2022-11-04T07:12:53;9.6;97.0
45383;DHT22;42455;51.660;5.824;2022-11-04T07:17:59;9.6;97.0
45383;DHT22;42455;51.660;5.824;2022-11-04T07:23:05;9.6;97.0
45383;DHT22;42455;51.660;5.824;2022-11-04T07:28:12;9.7;97.0
45383;DHT22;42455;51.660;5.824;2022-11-04T07:33:18;9.7;97.5
45383;DHT22;42455;51.660;5.824;2022-11-04T07:38:23;9.8;97.5
45383;DHT22;42455;51.660;5.824;2022-11-04T07:43:29;9.9;97.5
45383;DHT22;42455;51.660;5.824;2022-11-04T07:48:35;10.0;97.5
45383;DHT22;42455;51.660;5.824;2022-11-04T07:53:41;10.1;98.0
45383;DHT22;42455;51.660;5.824;2022-11-04T07:58:47;10.2;98.0
45383;DHT22;42455;51.660;5.824;2022-11-04T08:03:53;10.3;98.0
45383;DHT22;42455;51.660;5.824;2022-11-04T08:08:59;10.5;98.5
45383;DHT22;42455;51.660;5.824;2022-11-04T08:14:06;10.6;98.5
45383;DHT22;42455;51.660;5.824;2022-11-04T08:19:12;10.7;98.5
45383;DHT22;42455;51.660;5.824;2022-11-04T08:24:18;10.8;98.5
45383;DHT22;42455;51.660;5.824;2022-11-04T08:29:24;11.0;98.5
45383;DHT22;42455;51.660;5.824;2022-11-04T08:34:30;11.1;98.5
45383;DHT22;42455;51.660;5.824;2022-11-04T08:39:37;11.2;98.5
45383;DHT22;42455;51.660;5.824;2022-11-04T08:44:43;11.4;98.5
45383;DHT22;42455;51.660;5.824;2022-11-04T08:49:49;11.5;98.5
45383;DHT22;42455;51.660;5.824;2022-11-04T08:54:55;11.6;98.5
45383;DHT22;42455;51.660;5.824;2022-11-04T09:00:02;11.7;98.5
45383;DHT22;42455;51.660;5.824;2022-11-04T09:05:08;11.8;98.5
45383;DHT22;42455;51.660;5.824;2022-11-04T09:10:14;12.0;98.5
45383;DHT22;42455;51.660;5.824;2022-11-04T09:15:20;12.1;98.5
45383;DHT22;42455;51.660;5.824;2022-11-04T09:20:26;12.2;98.5
45383;DHT22;42455;51.660;5.824;2022-11-04T09:30:39;12.4;98.5
45383;DHT22;42455;51.660;5.824;2022-11-04T09:35:52;12.5;98.5
45383;DHT22;42455;51.660;5.824;2022-11-04T09:40:51;12.6;98.5
45383;DHT22;42455;51.660;5.824;2022-11-04T09:45:57;12.7;98.5
45383;DHT22;42455;51.660;5.824;2022-11-04T09:51:04;12.8;98.0
45383;DHT22;42455;51.660;5.824;2022-11-04T09:56:14;12.9;98.0
45383;DHT22;42455;51.660;5.824;2022-11-04T10:01:22;13.0;98.0
45383;DHT22;42455;51.660;5.824;2022-11-04T10:06:43;13.1;98.0
45383;DHT22;42455;51.660;5.824;2022-11-04T10:12:00;13.1;98.0
45383;DHT22;42455;51.660;5.824;2022-11-04T10:17:38;13.2;98.0
45383;DHT22;42455;51.660;5.824;2022-11-04T10:22:48;13.3;98.0
45383;DHT22;42455;51.660;5.824;2022-11-04T10:26:46;13.3;97.5
45383;DHT22;42455;51.660;5.824;2022-11-04T10:31:53;13.4;97.5
45383;DHT22;42455;51.660;5.824;2022-11-04T10:36:58;13.4;97.5
45383;DHT22;42455;51.660;5.824;2022-11-04T10:42:04;13.5;97.5
45383;DHT22;42455;51.660;5.824;2022-11-04T10:47:21;13.6;97.5
45383;DHT22;42455;51.660;5.824;2022-11-04T10:52:16;13.8;97.5
45383;DHT22;42455;51.660;5.824;2022-11-04T10:57:24;14.0;97.5
45383;DHT22;42455;51.660;5.824;2022-11-04T11:02:45;14.3;97.5
45383;DHT22;42455;51.660;5.824;2022-11-04T11:07:35;14.5;97.5
45383;DHT22;42455;51.660;5.824;2022-11-04T11:12:41;14.7;97.0
45383;DHT22;42455;51.660;5.824;2022-11-04T11:17:47;14.9;97.0
45383;DHT22;42455;51.660;5.824;2022-11-04T11:22:53;15.2;96.5
45383;DHT22;42455;51.660;5.824;2022-11-04T11:28:03;15.3;95.5
45383;DHT22;42455;51.660;5.824;2022-11-04T11:33:16;15.3;95.5
45383;DHT22;42455;51.660;5.824;2022-11-04T11:38:21;15.4;95.0
45383;DHT22;42455;51.660;5.824;2022-11-04T11:43:27;15.5;95.0
45383;DHT22;42455;51.660;5.824;2022-11-04T11:48:30;15.5;94.5
45383;DHT22;42455;51.660;5.824;2022-11-04T11:53:30;15.4;94.0
45383;DHT22;42455;51.660;5.824;2022-11-04T11:58:41;15.5;94.0
45383;DHT22;42455;51.660;5.824;2022-11-04T12:03:44;15.6;93.5
45383;DHT22;42455;51.660;5.824;2022-11-04T12:09:16;15.6;93.5
45383;DHT22;42455;51.660;5.824;2022-11-04T12:14:05;15.6;93.0
45383;DHT22;42455;51.660;5.824;2022-11-04T12:19:32;15.6;93.0
45383;DHT22;42455;51.660;5.824;2022-11-04T12:24:33;15.6;93.0
45383;DHT22;42455;51.660;5.824;2022-11-04T12:29:53;15.6;93.0
45383;DHT22;42455;51.660;5.824;2022-11-04T12:34:31;15.7;93.0
45383;DHT22;42455;51.660;5.824;2022-11-04T12:40:20;15.7;92.5
45383;DHT22;42455;51.660;5.824;2022-11-04T12:44:38;15.7;92.5
45383;DHT22;42455;51.660;5.824;2022-11-04T12:50:44;15.7;92.5
45383;DHT22;42455;51.660;5.824;2022-11-04T12:55:54;15.7;92.0
45383;DHT22;42455;51.660;5.824;2022-11-04T13:00:11;15.6;92.0
45383;DHT22;42455;51.660;5.824;2022-11-04T13:05:02;15.6;92.0
45383;DHT22;42455;51.660;5.824;2022-11-04T13:10:05;15.6;92.0
45383;DHT22;42455;51.660;5.824;2022-11-04T13:15:18;15.5;92.0
45383;DHT22;42455;51.660;5.824;2022-11-04T13:20:21;15.5;92.0
45383;DHT22;42455;51.660;5.824;2022-11-04T13:25:28;15.5;92.0
45383;DHT22;42455;51.660;5.824;2022-11-04T13:30:32;15.4;92.0
45383;DHT22;42455;51.660;5.824;2022-11-04T13:35:58;15.5;92.0
45383;DHT22;42455;51.660;5.824;2022-11-04T13:40:58;15.5;92.0
45383;DHT22;42455;51.660;5.824;2022-11-04T13:45:47;15.6;92.0
45383;DHT22;42455;51.660;5.824;2022-11-04T13:50:57;15.7;92.0
45383;DHT22;42455;51.660;5.824;2022-11-04T13:55:58;15.7;91.5
45383;DHT22;42455;51.660;5.824;2022-11-04T14:01:12;15.7;91.5
45383;DHT22;42455;51.660;5.824;2022-11-04T14:06:10;15.5;91.5
45383;DHT22;42455;51.660;5.824;2022-11-04T14:11:15;15.4;91.5
45383;DHT22;42455;51.660;5.824;2022-11-04T14:16:44;15.3;91.5
45383;DHT22;42455;51.660;5.824;2022-11-04T14:21:27;15.2;91.5
45383;DHT22;42455;51.660;5.824;2022-11-04T14:26:42;15.2;92.0
45383;DHT22;42455;51.660;5.824;2022-11-04T14:31:40;15.1;92.0
45383;DHT22;42455;51.660;5.824;2022-11-04T14:36:45;15.0;92.0
45383;DHT22;42455;51.660;5.824;2022-11-04T14:41:57;14.9;92.0
45383;DHT22;42455;51.660;5.824;2022-11-04T14:46:59;14.9;92.0
45383;DHT22;42455;51.660;5.824;2022-11-04T14:52:04;14.8;92.0
45383;DHT22;42455;51.660;5.824;2022-11-04T14:57:12;14.8;92.0
45383;DHT22;42455;51.660;5.824;2022-11-04T15:02:18;14.7;92.0
45383;DHT22;42455;51.660;5.824;2022-11-04T15:07:25;14.6;92.5
45383;DHT22;42455;51.660;5.824;2022-11-04T15:12:28;14.6;92.5
45383;DHT22;42455;51.660;5.824;2022-11-04T15:17:34;14.5;92.5
45383;DHT22;42455;51.660;5.824;2022-11-04T15:22:41;14.4;92.5
45383;DHT22;42455;51.660;5.824;2022-11-04T15:27:48;14.4;92.5
45383;DHT22;42455;51.660;5.824;2022-11-04T15:32:55;14.4;92.5
45383;DHT22;42455;51.660;5.824;2022-11-04T15:38:01;14.4;92.5
45383;DHT22;42455;51.660;5.824;2022-11-04T15:43:05;14.4;93.0
45383;DHT22;42455;51.660;5.824;2022-11-04T15:48:22;14.3;93.0
45383;DHT22;42455;51.660;5.824;2022-11-04T15:53:18;14.3;93.0
45383;DHT22;42455;51.660;5.824;2022-11-04T15:58:24;14.2;93.0
45383;DHT22;42455;51.660;5.824;2022-11-04T16:03:29;14.2;93.0
45383;DHT22;42455;51.660;5.824;2022-11-04T16:08:35;14.2;93.0
45383;DHT22;42455;51.660;5.824;2022-11-04T16:13:43;14.1;93.0
45383;DHT22;42455;51.660;5.824;2022-11-04T16:18:49;14.0;93.0
45383;DHT22;42455;51.660;5.824;2022-11-04T16:24:00;14.0;93.0
45383;DHT22;42455;51.660;5.824;2022-11-04T16:28:59;13.9;92.5
45383;DHT22;42455;51.660;5.824;2022-11-04T16:39:12;13.7;92.0
45383;DHT22;42455;51.660;5.824;2022-11-04T16:44:21;13.6;92.0
45383;DHT22;42455;51.660;5.824;2022-11-04T16:49:24;13.5;92.0
45383;DHT22;42455;51.660;5.824;2022-11-04T16:54:30;13.5;91.5
45383;DHT22;42455;51.660;5.824;2022-11-04T16:59:36;13.4;91.5
45383;DHT22;42455;51.660;5.824;2022-11-04T17:04:43;13.3;91.5
45383;DHT22;42455;51.660;5.824;2022-11-04T17:09:49;13.2;91.5
45383;DHT22;42455;51.660;5.824;2022-11-04T17:14:55;13.2;92.0
45383;DHT22;42455;51.660;5.824;2022-11-04T17:20:02;13.1;92.0
45383;DHT22;42455;51.660;5.824;2022-11-04T17:25:13;13.1;92.0
45383;DHT22;42455;51.660;5.824;2022-11-04T17:30:15;13.0;92.0
45383;DHT22;42455;51.660;5.824;2022-11-04T17:35:20;13.0;92.0
45383;DHT22;42455;51.660;5.824;2022-11-04T17:40:26;12.9;92.0
45383;DHT22;42455;51.660;5.824;2022-11-04T17:45:33;12.9;92.0
45383;DHT22;42455;51.660;5.824;2022-11-04T17:50:39;12.9;92.0
45383;DHT22;42455;51.660;5.824;2022-11-04T17:55:45;12.8;92.0
45383;DHT22;42455;51.660;5.824;2022-11-04T18:00:51;12.8;92.0
45383;DHT22;42455;51.660;5.824;2022-11-04T18:05:57;12.7;92.0
45383;DHT22;42455;51.660;5.824;2022-11-04T18:11:04;12.7;92.0
45383;DHT22;42455;51.660;5.824;2022-11-04T18:16:09;12.6;92.5
45383;DHT22;42455;51.660;5.824;2022-11-04T18:21:14;12.6;92.5
45383;DHT22;42455;51.660;5.824;2022-11-04T18:26:21;12.5;92.5
45383;DHT22;42455;51.660;5.824;2022-11-04T18:31:30;12.5;92.5
45383;DHT22;42455;51.660;5.824;2022-11-04T18:36:33;12.4;92.5
45383;DHT22;42455;51.660;5.824;2022-11-04T18:41:39;12.4;92.5
45383;DHT22;42455;51.660;5.824;2022-11-04T18:46:45;12.3;92.5
45383;DHT22;42455;51.660;5.824;2022-11-04T18:51:51;12.3;92.5
45383;DHT22;42455;51.660;5.824;2022-11-04T18:56:57;12.2;93.0
45383;DHT22;42455;51.660;5.824;2022-11-04T19:02:04;12.2;93.0
45383;DHT22;42455;51.660;5.824;2022-11-04T19:07:10;12.2;93.0
45383;DHT22;42455;51.660;5.824;2022-11-04T19:12:16;12.2;93.0
45383;DHT22;42455;51.660;5.824;2022-11-04T19:17:22;12.2;93.0
45383;DHT22;42455;51.660;5.824;2022-11-04T19:22:28;12.1;93.0
45383;DHT22;42455;51.660;5.824;2022-11-04T19:27:35;12.1;93.0
45383;DHT22;42455;51.660;5.824;2022-11-04T19:32:41;12.1;93.0
45383;DHT22;42455;51.660;5.824;2022-11-04T19:37:47;12.0;93.0
45383;DHT22;42455;51.660;5.824;2022-11-04T19:42:53;12.0;93.0
45383;DHT22;42455;51.660;5.824;2022-11-04T19:47:59;11.9;93.0
45383;DHT22;42455;51.660;5.824;2022-11-04T19:53:06;11.8;93.0
45383;DHT22;42455;51.660;5.824;2022-11-04T19:58:12;11.8;93.0
45383;DHT22;42455;51.660;5.824;2022-11-04T20:03:18;11.7;93.0
45383;DHT22;42455;51.660;5.824;2022-11-04T20:08:23;11.7;93.5
45383;DHT22;42455;51.660;5.824;2022-11-04T20:13:30;11.6;93.5
45383;DHT22;42455;51.660;5.824;2022-11-04T20:18:36;11.6;93.5
45383;DHT22;42455;51.660;5.824;2022-11-04T20:23:42;11.5;93.5
45383;DHT22;42455;51.660;5.824;2022-11-04T20:28:47;11.5;93.5
45383;DHT22;42455;51.660;5.824;2022-11-04T20:33:54;11.4;93.5
45383;DHT22;42455;51.660;5.824;2022-11-04T20:44:09;11.3;94.0
45383;DHT22;42455;51.660;5.824;2022-11-04T20:49:12;11.3;94.0
45383;DHT22;42455;51.660;5.824;2022-11-04T20:54:18;11.3;94.0
45383;DHT22;42455;51.660;5.824;2022-11-04T20:59:24;11.2;94.0
45383;DHT22;42455;51.660;5.824;2022-11-04T21:04:31;11.2;94.0
45383;DHT22;42455;51.660;5.824;2022-11-04T21:09:37;11.2;94.0
45383;DHT22;42455;51.660;5.824;2022-11-04T21:14:43;11.1;94.5
45383;DHT22;42455;51.660;5.824;2022-11-04T21:19:49;11.1;94.5
45383;DHT22;42455;51.660;5.824;2022-11-04T21:24:55;11.1;94.5
45383;DHT22;42455;51.660;5.824;2022-11-04T21:30:02;11.0;94.5
45383;DHT22;42455;51.660;5.824;2022-11-04T21:35:08;11.0;94.5
45383;DHT22;42455;51.660;5.824;2022-11-04T21:40:14;10.9;94.5
45383;DHT22;42455;51.660;5.824;2022-11-04T21:45:20;10.9;94.5
45383;DHT22;42455;51.660;5.824;2022-11-04T21:50:27;10.9;94.5
45383;DHT22;42455;51.660;5.824;2022-11-04T21:55:33;10.8;94.5
45383;DHT22;42455;51.660;5.824;2022-11-04T22:00:39;10.8;94.5
45383;DHT22;42455;51.660;5.824;2022-11-04T22:05:54;10.7;94.5
45383;DHT22;42455;51.660;5.824;2022-11-04T22:10:51;10.7;94.5
45383;DHT22;42455;51.660;5.824;2022-11-04T22:15:57;10.6;94.5
45383;DHT22;42455;51.660;5.824;2022-11-04T22:21:05;10.5;95.0
45383;DHT22;42455;51.660;5.824;2022-11-04T22:26:12;10.5;95.0
45383;DHT22;42455;51.660;5.824;2022-11-04T22:31:17;10.5;95.0
45383;DHT22;42455;51.660;5.824;2022-11-04T22:36:22;10.5;95.5
45383;DHT22;42455;51.660;5.824;2022-11-04T22:41:29;10.5;95.5
45383;DHT22;42455;51.660;5.824;2022-11-04T22:46:34;10.5;95.5
45383;DHT22;42455;51.660;5.824;2022-11-04T22:51:40;10.5;95.5
45383;DHT22;42455;51.660;5.824;2022-11-04T22:56:46;10.5;95.5
45383;DHT22;42455;51.660;5.824;2022-11-04T23:01:52;10.5;95.5
45383;DHT22;42455;51.660;5.824;2022-11-04T23:06:59;10.5;95.5
45383;DHT22;42455;51.660;5.824;2022-11-04T23:12:05;10.5;95.5
45383;DHT22;42455;51.660;5.824;2022-11-04T23:17:18;10.4;95.5
45383;DHT22;42455;51.660;5.824;2022-11-04T23:22:17;10.4;95.5
45383;DHT22;42455;51.660;5.824;2022-11-04T23:27:24;10.3;95.5
45383;DHT22;42455;51.660;5.824;2022-11-04T23:32:30;10.3;95.5
45383;DHT22;42455;51.660;5.824;2022-11-04T23:37:36;10.3;95.5
45383;DHT22;42455;51.660;5.824;2022-11-04T23:42:42;10.3;95.5
45383;DHT22;42455;51.660;5.824;2022-11-04T23:47:54;10.2;95.5
45383;DHT22;42455;51.660;5.824;2022-11-04T23:52:55;10.2;95.5
45383;DHT22;42455;51.660;5.824;2022-11-04T23:58:01;10.2;95.5
